Time;durP1;ratioP1;P1;durP2;ratioP2;P2;SDS_P1;SDS_P2;PMS_P1;PMS_P2;Temp;Humidity;BMP_temperature;BMP_pressure;BME280_temperature;BME280_humidity;BME280_pressure;Samples;Min_cycle;Max_cycle;Signal;HPM_P1;HPM_P2
2022/08/25 00:01:21;;;;;;;;;;;22.80;87.30;;;;;;5045765;28;20147;-66
2022/08/25 00:03:52;;;;;;;;;;;22.90;88.70;;;;;;5035876;28;20578;-65
2022/08/25 00:06:21;;;;;;;;;;;22.90;88.40;;;;;;5040771;28;20226;-65
2022/08/25 00:08:49;;;;;;;;;;;22.90;87.60;;;;;;5037913;28;20298;-66
2022/08/25 00:11:18;;;;;;;;;;;22.90;87.80;;;;;;5039268;28;20235;-65
2022/08/25 00:13:48;;;;;;;;;;;22.80;88.20;;;;;;5040784;28;24862;-65
2022/08/25 00:16:17;;;;;;;;;;;22.70;88.40;;;;;;5039585;28;20088;-65
2022/08/25 00:18:46;;;;;;;;;;;22.70;89.10;;;;;;5051821;28;20273;-65
2022/08/25 00:21:15;;;;;;;;;;;22.60;89.30;;;;;;5052016;28;20651;-65
2022/08/25 00:23:43;;;;;;;;;;;22.50;89.70;;;;;;5052145;28;20270;-65
2022/08/25 00:26:11;;;;;;;;;;;22.60;89.90;;;;;;5051813;28;20224;-63
2022/08/25 00:28:39;;;;;;;;;;;22.60;90.10;;;;;;5046917;28;20592;-65
2022/08/25 00:31:10;;;;;;;;;;;22.50;90.30;;;;;;5037101;28;20677;-65
2022/08/25 00:33:38;;;;;;;;;;;22.50;90.60;;;;;;5045582;28;25116;-65
2022/08/25 00:36:06;;;;;;;;;;;22.50;91.00;;;;;;5037291;28;20597;-66
2022/08/25 00:38:35;;;;;;;;;;;22.50;91.40;;;;;;5039808;28;20307;-66
2022/08/25 00:41:06;;;;;;;;;;;22.60;91.20;;;;;;5041810;28;20339;-65
2022/08/25 00:43:35;;;;;;;;;;;22.60;91.10;;;;;;5052017;28;20838;-64
2022/08/25 00:46:03;;;;;;;;;;;22.60;91.50;;;;;;5051630;28;25131;-65
2022/08/25 00:48:32;;;;;;;;;;;22.60;91.60;;;;;;5059438;28;20142;-65
2022/08/25 00:51:01;;;;;;;;;;;22.50;91.90;;;;;;5035501;28;20203;-65
2022/08/25 00:53:29;;;;;;;;;;;22.40;92.20;;;;;;5040343;28;25069;-65
2022/08/25 00:55:58;;;;;;;;;;;22.40;92.50;;;;;;5040579;28;20828;-67
2022/08/25 00:58:27;;;;;;;;;;;22.40;92.90;;;;;;5040103;28;20114;-65
2022/08/25 01:00:56;;;;;;;;;;;22.30;93.20;;;;;;5034201;28;20407;-64
2022/08/25 01:03:25;;;;;;;;;;;22.30;93.50;;;;;;5037528;28;25084;-66
2022/08/25 01:06:04;;;;;;;;;;;22.30;93.80;;;;;;5044187;28;20130;-66
2022/08/25 01:08:33;;;;;;;;;;;22.20;94.10;;;;;;5045215;28;20189;-67
2022/08/25 01:11:04;;;;;;;;;;;22.20;94.30;;;;;;5047754;28;20258;-67
2022/08/25 01:13:35;;;;;;;;;;;22.20;94.70;;;;;;5041423;28;20690;-66
2022/08/25 01:16:03;;;;;;;;;;;22.20;94.90;;;;;;5036676;28;20635;-66
2022/08/25 01:18:42;;;;;;;;;;;22.20;95.20;;;;;;5042897;28;20219;-66
2022/08/25 01:21:11;;;;;;;;;;;22.20;95.50;;;;;;5043498;28;25094;-66
2022/08/25 01:23:40;;;;;;;;;;;22.30;95.70;;;;;;5037350;28;20365;-66
2022/08/25 01:26:09;;;;;;;;;;;22.40;95.70;;;;;;5037621;28;20308;-66
2022/08/25 01:28:37;;;;;;;;;;;22.50;95.70;;;;;;5042355;28;20709;-66
2022/08/25 01:31:05;;;;;;;;;;;22.60;95.90;;;;;;5040723;28;21257;-65
2022/08/25 01:33:50;;;;;;;;;;;22.60;95.90;;;;;;5037331;28;25079;-66
2022/08/25 01:36:20;;;;;;;;;;;22.60;96.10;;;;;;5052842;28;20908;-65
2022/08/25 01:38:49;;;;;;;;;;;22.60;96.40;;;;;;5048867;28;20543;-67
2022/08/25 01:41:17;;;;;;;;;;;22.50;97.10;;;;;;5044719;28;20595;-66
2022/08/25 01:43:45;;;;;;;;;;;22.50;97.30;;;;;;5042220;28;20499;-66
2022/08/25 01:46:13;;;;;;;;;;;22.50;97.30;;;;;;5044745;28;20241;-66
2022/08/25 01:48:41;;;;;;;;;;;22.70;97.20;;;;;;5046827;28;20602;-65
2022/08/25 01:51:08;;;;;;;;;;;22.70;97.50;;;;;;5043503;28;21110;-65
2022/08/25 01:53:37;;;;;;;;;;;22.80;97.30;;;;;;5039528;28;20452;-65
2022/08/25 01:56:10;;;;;;;;;;;22.90;97.20;;;;;;5041870;28;20837;-65
2022/08/25 01:58:39;;;;;;;;;;;23.00;97.10;;;;;;5039935;28;20779;-66
2022/08/25 02:01:08;;;;;;;;;;;23.10;97.20;;;;;;5043131;28;20134;-65
2022/08/25 02:03:37;;;;;;;;;;;23.10;97.40;;;;;;5043165;28;20251;-66
2022/08/25 02:06:11;;;;;;;;;;;23.10;97.60;;;;;;5040792;28;20907;-66
2022/08/25 02:08:41;;;;;;;;;;;23.10;97.60;;;;;;5046112;28;20895;-66
2022/08/25 02:11:11;;;;;;;;;;;23.20;97.60;;;;;;5039827;28;20449;-66
2022/08/25 02:13:39;;;;;;;;;;;23.00;98.30;;;;;;5045885;28;21141;-67
2022/08/25 02:16:07;;;;;;;;;;;23.00;98.30;;;;;;5040659;28;20262;-66
2022/08/25 02:18:35;;;;;;;;;;;23.00;98.50;;;;;;5049639;28;20743;-66
2022/08/25 02:21:03;;;;;;;;;;;23.10;98.50;;;;;;5045005;28;20149;-67
2022/08/25 02:23:31;;;;;;;;;;;23.00;98.90;;;;;;5045070;28;20126;-66
2022/08/25 02:26:00;;;;;;;;;;;22.90;99.10;;;;;;5053957;28;20149;-65
2022/08/25 02:28:28;;;;;;;;;;;22.70;99.90;;;;;;5051134;28;25166;-66
2022/08/25 02:30:56;;;;;;;;;;;22.70;99.90;;;;;;5042361;28;20515;-66
2022/08/25 02:33:28;;;;;;;;;;;22.70;99.90;;;;;;5046889;28;20528;-67
2022/08/25 02:35:57;;;;;;;;;;;22.60;99.90;;;;;;5039018;28;20842;-66
2022/08/25 02:38:26;;;;;;;;;;;22.60;99.90;;;;;;5047566;28;20916;-66
2022/08/25 02:40:54;;;;;;;;;;;22.80;99.90;;;;;;5044980;28;25133;-66
2022/08/25 02:43:23;;;;;;;;;;;22.90;99.90;;;;;;5043366;28;20096;-66
2022/08/25 02:45:51;;;;;;;;;;;22.90;99.90;;;;;;5045577;28;20458;-66
2022/08/25 02:48:19;;;;;;;;;;;22.70;99.90;;;;;;5045796;28;20587;-66
2022/08/25 02:50:47;;;;;;;;;;;22.60;99.90;;;;;;5042042;28;20692;-65
2022/08/25 02:53:15;;;;;;;;;;;22.50;99.90;;;;;;5047768;28;20119;-67
2022/08/25 02:55:42;;;;;;;;;;;22.30;99.90;;;;;;5042554;28;20220;-65
2022/08/25 02:58:10;;;;;;;;;;;22.30;99.90;;;;;;5043724;28;20726;-65
2022/08/25 03:00:39;;;;;;;;;;;22.40;99.90;;;;;;5045130;28;20342;-65
2022/08/25 03:03:09;;;;;;;;;;;22.40;99.90;;;;;;5046889;28;20747;-65
2022/08/25 03:05:38;;;;;;;;;;;22.30;99.90;;;;;;5040567;28;21510;-65
2022/08/25 03:08:05;;;;;;;;;;;22.20;99.90;;;;;;5046343;28;21107;-65
2022/08/25 03:10:34;;;;;;;;;;;22.20;99.90;;;;;;5044354;28;20731;-65
2022/08/25 03:13:01;;;;;;;;;;;22.10;99.90;;;;;;5042216;28;21132;-65
2022/08/25 03:15:29;;;;;;;;;;;22.10;99.90;;;;;;5045599;28;25069;-65
2022/08/25 03:18:00;;;;;;;;;;;22.10;99.90;;;;;;5047319;28;20680;-66
2022/08/25 03:20:28;;;;;;;;;;;22.20;99.90;;;;;;5042554;28;20232;-64
2022/08/25 03:22:56;;;;;;;;;;;22.20;99.90;;;;;;5045088;28;20224;-66
2022/08/25 03:28:09;;;;;;;;;;;22.50;99.90;;;;;;5043844;28;20907;-66
2022/08/25 03:30:38;;;;;;;;;;;22.30;99.90;;;;;;5046133;28;20249;-65
2022/08/25 03:33:07;;;;;;;;;;;22.20;99.90;;;;;;5041510;28;20137;-63
2022/08/25 03:35:35;;;;;;;;;;;22.20;99.90;;;;;;5042272;28;20690;-65
2022/08/25 03:38:03;;;;;;;;;;;22.40;99.90;;;;;;5043344;28;20523;-65
2022/08/25 03:40:31;;;;;;;;;;;22.50;99.90;;;;;;5044618;28;20148;-66
2022/08/25 03:42:59;;;;;;;;;;;22.60;99.90;;;;;;5041141;28;20324;-66
2022/08/25 03:45:27;;;;;;;;;;;22.40;99.90;;;;;;5044925;28;20286;-66
2022/08/25 03:47:55;;;;;;;;;;;22.20;99.90;;;;;;5043652;28;20268;-65
2022/08/25 03:50:24;;;;;;;;;;;22.20;99.90;;;;;;5041912;28;20205;-65
2022/08/25 03:52:53;;;;;;;;;;;22.30;99.90;;;;;;5043902;28;20689;-65
2022/08/25 03:55:21;;;;;;;;;;;22.40;99.90;;;;;;5047843;28;20262;-65
2022/08/25 03:57:50;;;;;;;;;;;22.40;99.90;;;;;;5047333;28;20200;-65
2022/08/25 04:00:18;;;;;;;;;;;22.50;99.90;;;;;;5041397;28;20199;-66
2022/08/25 04:02:46;;;;;;;;;;;22.50;99.90;;;;;;5037811;28;20175;-64
2022/08/25 04:05:14;;;;;;;;;;;22.50;99.90;;;;;;5042033;28;20228;-64
2022/08/25 04:07:43;;;;;;;;;;;22.40;99.90;;;;;;5047194;28;20231;-65
2022/08/25 04:10:12;;;;;;;;;;;22.20;99.90;;;;;;5043349;28;20247;-65
2022/08/25 04:12:40;;;;;;;;;;;22.10;99.90;;;;;;5041658;28;20218;-65
2022/08/25 04:15:09;;;;;;;;;;;22.00;99.90;;;;;;5040240;28;20198;-67
2022/08/25 04:17:37;;;;;;;;;;;21.90;99.90;;;;;;5039260;28;20576;-65
2022/08/25 04:20:06;;;;;;;;;;;21.80;99.90;;;;;;5042602;28;20238;-65
2022/08/25 04:22:35;;;;;;;;;;;22.00;99.90;;;;;;5053919;28;20584;-65
2022/08/25 04:25:05;;;;;;;;;;;21.80;99.90;;;;;;5045686;28;21622;-66
2022/08/25 04:27:33;;;;;;;;;;;21.70;99.90;;;;;;5038217;28;20259;-65
2022/08/25 04:30:01;;;;;;;;;;;21.60;99.90;;;;;;5033626;28;20202;-66
2022/08/25 04:32:31;;;;;;;;;;;21.40;99.90;;;;;;5037664;28;20214;-67
2022/08/25 04:34:58;;;;;;;;;;;21.30;99.90;;;;;;5032697;28;20206;-67
2022/08/25 04:37:26;;;;;;;;;;;21.20;99.90;;;;;;5038866;28;20191;-65
2022/08/25 04:39:54;;;;;;;;;;;21.20;99.90;;;;;;5038080;28;20214;-67
2022/08/25 04:42:25;;;;;;;;;;;21.30;99.90;;;;;;5037730;28;20212;-63
2022/08/25 04:44:53;;;;;;;;;;;21.30;99.90;;;;;;5035372;28;20219;-64
2022/08/25 04:47:21;;;;;;;;;;;21.30;99.90;;;;;;5039473;28;20793;-65
2022/08/25 04:49:49;;;;;;;;;;;21.30;99.90;;;;;;5038223;28;20087;-64
2022/08/25 04:52:17;;;;;;;;;;;21.30;99.90;;;;;;5038232;28;20249;-62
2022/08/25 04:54:45;;;;;;;;;;;21.30;99.90;;;;;;5036142;28;20081;-67
2022/08/25 04:57:13;;;;;;;;;;;21.50;99.90;;;;;;5036399;28;20915;-65
2022/08/25 04:59:42;;;;;;;;;;;21.50;99.90;;;;;;5036751;28;20149;-65
2022/08/25 05:02:09;;;;;;;;;;;21.50;99.90;;;;;;5037465;28;20101;-62
2022/08/25 05:04:37;;;;;;;;;;;21.50;99.90;;;;;;5035823;28;20409;-64
2022/08/25 05:07:05;;;;;;;;;;;21.40;99.90;;;;;;5039945;28;20291;-62
2022/08/25 05:09:33;;;;;;;;;;;21.20;99.90;;;;;;5038152;28;20992;-62
2022/08/25 05:12:01;;;;;;;;;;;21.20;99.90;;;;;;5035050;28;20350;-64
2022/08/25 05:14:30;;;;;;;;;;;21.10;99.90;;;;;;5036698;28;25064;-64
2022/08/25 05:16:59;;;;;;;;;;;21.00;99.90;;;;;;5040353;28;20214;-63
2022/08/25 05:19:27;;;;;;;;;;;21.00;99.90;;;;;;5040934;28;20217;-66
2022/08/25 05:21:55;;;;;;;;;;;21.00;99.90;;;;;;5039703;28;25149;-63
2022/08/25 05:24:25;;;;;;;;;;;21.00;99.90;;;;;;5039387;28;20088;-69
2022/08/25 05:26:52;;;;;;;;;;;21.00;99.90;;;;;;5039046;28;20685;-63
2022/08/25 05:29:20;;;;;;;;;;;21.00;99.90;;;;;;5039282;28;25054;-64
2022/08/25 05:31:48;;;;;;;;;;;21.00;99.90;;;;;;5042412;28;20297;-65
2022/08/25 05:34:19;;;;;;;;;;;21.10;99.90;;;;;;5041153;28;20216;-66
2022/08/25 05:36:47;;;;;;;;;;;21.10;99.90;;;;;;5042370;28;20140;-61
2022/08/25 05:39:15;;;;;;;;;;;21.20;99.90;;;;;;5042886;28;25080;-66
2022/08/25 05:41:43;;;;;;;;;;;21.20;99.90;;;;;;5046400;28;20175;-66
2022/08/25 05:44:11;;;;;;;;;;;21.30;99.90;;;;;;5041875;28;20804;-65
2022/08/25 05:46:39;;;;;;;;;;;21.30;99.90;;;;;;5039019;28;20625;-60
2022/08/25 05:49:07;;;;;;;;;;;21.40;99.90;;;;;;5042197;28;20213;-61
2022/08/25 05:51:36;;;;;;;;;;;21.50;99.90;;;;;;5038878;28;20081;-61
2022/08/25 05:54:04;;;;;;;;;;;21.50;99.90;;;;;;5041842;28;20256;-64
2022/08/25 05:56:32;;;;;;;;;;;21.60;99.90;;;;;;5037896;28;20902;-62
2022/08/25 05:58:59;;;;;;;;;;;21.70;99.90;;;;;;5040560;28;20187;-66
2022/08/25 06:04:16;;;;;;;;;;;21.80;99.90;;;;;;5039149;28;20853;-62
2022/08/25 06:06:46;;;;;;;;;;;21.90;99.90;;;;;;5038715;28;20683;-65
2022/08/25 06:09:14;;;;;;;;;;;22.00;99.90;;;;;;5039220;28;20164;-61
2022/08/25 06:11:42;;;;;;;;;;;22.00;99.90;;;;;;5038370;28;20898;-65
2022/08/25 06:14:10;;;;;;;;;;;22.10;99.90;;;;;;5039730;28;21020;-64
2022/08/25 06:16:39;;;;;;;;;;;22.20;99.90;;;;;;5048148;28;20919;-66
2022/08/25 06:19:07;;;;;;;;;;;22.20;99.90;;;;;;5055579;28;20703;-66
2022/08/25 06:21:37;;;;;;;;;;;22.30;99.90;;;;;;5062851;28;20784;-68
2022/08/25 06:24:07;;;;;;;;;;;22.40;99.90;;;;;;5045152;28;20177;-66
2022/08/25 06:26:42;;;;;;;;;;;22.40;99.90;;;;;;5042407;28;20477;-65
2022/08/25 06:29:09;;;;;;;;;;;22.50;99.90;;;;;;5039344;28;20329;-66
2022/08/25 06:31:37;;;;;;;;;;;22.70;99.90;;;;;;5037193;28;21394;-67
2022/08/25 06:34:05;;;;;;;;;;;22.80;99.90;;;;;;5044775;28;20354;-66
2022/08/25 06:36:33;;;;;;;;;;;22.90;99.90;;;;;;5057635;28;20072;-64
2022/08/25 06:39:01;;;;;;;;;;;23.00;99.90;;;;;;5073909;28;20330;-65
2022/08/25 06:41:31;;;;;;;;;;;23.10;99.90;;;;;;5073244;28;20257;-66
2022/08/25 06:44:03;;;;;;;;;;;23.20;99.90;;;;;;5073616;28;20211;-66
2022/08/25 06:46:32;;;;;;;;;;;23.20;99.90;;;;;;5073710;28;20873;-65
2022/08/25 06:49:03;;;;;;;;;;;23.30;99.90;;;;;;5073733;28;20700;-65
2022/08/25 06:51:31;;;;;;;;;;;23.40;99.90;;;;;;5066595;28;25086;-65
2022/08/25 06:53:59;;;;;;;;;;;23.40;99.90;;;;;;5053366;28;20771;-65
2022/08/25 06:56:27;;;;;;;;;;;23.50;99.90;;;;;;5053329;28;20739;-65
2022/08/25 06:58:56;;;;;;;;;;;23.60;99.90;;;;;;5053380;28;20373;-65
2022/08/25 07:01:25;;;;;;;;;;;23.60;99.90;;;;;;5053461;28;20858;-65
2022/08/25 07:03:56;;;;;;;;;;;23.70;99.90;;;;;;5053267;28;21066;-65
2022/08/25 07:06:24;;;;;;;;;;;23.90;99.90;;;;;;5058287;28;20252;-65
2022/08/25 07:08:52;;;;;;;;;;;23.90;99.90;;;;;;5072934;28;20530;-65
2022/08/25 07:11:20;;;;;;;;;;;24.00;99.90;;;;;;5073095;28;20517;-65
2022/08/25 07:13:49;;;;;;;;;;;24.00;99.90;;;;;;5072933;28;20660;-65
2022/08/25 07:16:19;;;;;;;;;;;24.10;99.90;;;;;;5072230;28;20178;-65
2022/08/25 07:18:47;;;;;;;;;;;24.10;99.90;;;;;;5072979;28;20709;-65
2022/08/25 07:21:15;;;;;;;;;;;24.30;99.90;;;;;;5070016;28;20977;-65
2022/08/25 07:23:46;;;;;;;;;;;24.30;99.90;;;;;;5060547;28;20686;-65
2022/08/25 07:26:15;;;;;;;;;;;24.40;99.90;;;;;;5072888;28;20497;-65
2022/08/25 07:29:03;;;;;;;;;;;24.50;99.90;;;;;;5073021;28;20226;-66
2022/08/25 07:31:33;;;;;;;;;;;24.60;99.90;;;;;;5072578;28;20757;-65
2022/08/25 07:36:46;;;;;;;;;;;24.60;99.90;;;;;;5071678;28;20278;-66
2022/08/25 07:39:15;;;;;;;;;;;24.80;99.90;;;;;;5071950;28;20801;-65
2022/08/25 07:41:43;;;;;;;;;;;24.80;99.90;;;;;;5072449;28;20786;-65
2022/08/25 07:44:12;;;;;;;;;;;24.80;99.90;;;;;;5072407;28;20220;-65
2022/08/25 07:46:41;;;;;;;;;;;24.90;99.90;;;;;;5072483;28;20296;-65
2022/08/25 07:49:09;;;;;;;;;;;25.10;99.90;;;;;;5072481;28;20301;-65
2022/08/25 07:51:43;;;;;;;;;;;25.20;99.90;;;;;;5070271;28;20387;-65
2022/08/25 07:54:31;;;;;;;;;;;25.30;99.90;;;;;;5058344;28;20199;-63
2022/08/25 07:57:00;;;;;;;;;;;25.40;99.90;;;;;;5052338;28;20483;-65
2022/08/25 07:59:29;;;;;;;;;;;25.60;99.90;;;;;;5052145;28;20853;-65
2022/08/25 08:01:58;;;;;;;;;;;25.60;99.90;;;;;;5052008;28;25090;-65
2022/08/25 08:04:26;;;;;;;;;;;25.70;99.90;;;;;;5052331;28;20164;-65
2022/08/25 08:06:55;;;;;;;;;;;26.00;99.90;;;;;;5061736;28;20225;-65
2022/08/25 08:09:22;;;;;;;;;;;26.20;99.90;;;;;;5072170;28;20148;-65
2022/08/25 08:11:50;;;;;;;;;;;26.30;99.90;;;;;;5071945;28;20216;-65
2022/08/25 08:14:21;;;;;;;;;;;26.30;99.90;;;;;;5071803;28;20140;-65
2022/08/25 08:16:49;;;;;;;;;;;26.40;99.90;;;;;;5071727;28;20138;-65
2022/08/25 08:19:18;;;;;;;;;;;26.60;99.90;;;;;;5072008;28;20099;-65
2022/08/25 08:21:50;;;;;;;;;;;26.90;99.90;;;;;;5059824;28;20098;-65
2022/08/25 08:24:21;;;;;;;;;;;27.20;99.90;;;;;;5051816;28;20298;-65
2022/08/25 08:27:09;;;;;;;;;;;27.20;99.90;;;;;;5051844;28;20271;-65
2022/08/25 08:29:37;;;;;;;;;;;27.40;99.90;;;;;;5051698;28;20658;-65
2022/08/25 08:32:06;;;;;;;;;;;27.60;99.90;;;;;;5051785;28;20223;-65
2022/08/25 08:34:35;;;;;;;;;;;27.70;99.90;;;;;;5051510;28;20213;-65
2022/08/25 08:37:03;;;;;;;;;;;27.80;99.90;;;;;;5051738;28;20224;-69
2022/08/25 08:39:31;;;;;;;;;;;27.80;99.90;;;;;;5051397;28;20202;-64
2022/08/25 08:42:20;;;;;;;;;;;27.80;99.90;;;;;;5051769;28;20249;-65
2022/08/25 08:45:00;;;;;;;;;;;28.10;99.90;;;;;;5051980;28;20103;-66
2022/08/25 08:47:37;;;;;;;;;;;28.10;99.90;;;;;;5051499;28;20198;-65
2022/08/25 08:50:16;;;;;;;;;;;28.10;99.90;;;;;;5052441;28;20513;-65
2022/08/25 08:52:54;;;;;;;;;;;28.10;99.90;;;;;;5075921;28;20225;-66
2022/08/25 08:55:26;;;;;;;;;;;28.50;99.90;;;;;;5075794;28;20661;-64
2022/08/25 08:57:57;;;;;;;;;;;28.60;99.90;;;;;;5075635;28;21047;-65
2022/08/25 09:00:26;;;;;;;;;;;28.60;99.80;;;;;;5075337;28;20429;-65
2022/08/25 09:02:57;;;;;;;;;;;28.90;99.90;;;;;;5075679;28;25128;-66
2022/08/25 09:05:28;;;;;;;;;;;29.00;99.30;;;;;;5070121;28;20084;-65
2022/08/25 09:07:57;;;;;;;;;;;29.10;99.50;;;;;;5055467;28;20312;-66
2022/08/25 09:10:26;;;;;;;;;;;29.30;98.60;;;;;;5055306;28;20993;-66
2022/08/25 09:12:58;;;;;;;;;;;29.30;98.60;;;;;;5055153;28;20568;-65
2022/08/25 09:18:18;;;;;;;;;;;29.10;97.70;;;;;;5054838;28;20132;-66
2022/08/25 09:21:00;;;;;;;;;;;29.20;98.40;;;;;;5055009;28;25137;-65
2022/08/25 09:23:33;;;;;;;;;;;29.40;98.40;;;;;;5055128;28;20694;-66
2022/08/25 09:26:05;;;;;;;;;;;29.70;98.20;;;;;;5055132;28;20793;-66
2022/08/25 09:28:38;;;;;;;;;;;29.70;96.90;;;;;;5055044;28;20214;-65
2022/08/25 09:31:13;;;;;;;;;;;29.80;97.10;;;;;;5054920;28;20693;-65
2022/08/25 09:33:41;;;;;;;;;;;30.30;97.30;;;;;;5055035;28;20098;-66
2022/08/25 09:36:10;;;;;;;;;;;30.50;96.40;;;;;;5055020;28;20304;-66
2022/08/25 09:38:38;;;;;;;;;;;30.60;96.40;;;;;;5054841;28;20213;-66
2022/08/25 09:41:07;;;;;;;;;;;30.30;96.30;;;;;;5054657;28;20179;-66
2022/08/25 09:43:35;;;;;;;;;;;30.70;96.00;;;;;;5054891;28;20742;-65
2022/08/25 09:46:10;;;;;;;;;;;30.70;95.80;;;;;;5054823;28;20235;-65
2022/08/25 09:48:43;;;;;;;;;;;30.60;95.90;;;;;;5054634;28;20291;-66
2022/08/25 09:51:20;;;;;;;;;;;30.90;95.90;;;;;;5054699;28;20626;-65
2022/08/25 09:53:51;;;;;;;;;;;30.80;95.30;;;;;;5054810;28;20729;-66
2022/08/25 09:56:21;;;;;;;;;;;31.00;95.00;;;;;;5055332;28;20237;-66
2022/08/25 09:58:49;;;;;;;;;;;31.10;94.80;;;;;;5054410;28;20211;-65
2022/08/25 10:01:17;;;;;;;;;;;31.00;94.50;;;;;;5053939;28;20220;-66
2022/08/25 10:03:56;;;;;;;;;;;30.80;94.30;;;;;;5054728;28;20613;-66
2022/08/25 10:06:27;;;;;;;;;;;30.90;94.60;;;;;;5073958;28;20274;-66
2022/08/25 10:08:58;;;;;;;;;;;31.30;94.40;;;;;;5074386;28;20454;-66
2022/08/25 10:11:33;;;;;;;;;;;31.20;93.80;;;;;;5074163;28;20223;-65
2022/08/25 10:14:01;;;;;;;;;;;31.20;94.30;;;;;;5074963;28;20252;-65
2022/08/25 10:16:31;;;;;;;;;;;31.40;93.60;;;;;;5074028;28;20359;-66
2022/08/25 10:19:05;;;;;;;;;;;31.30;93.60;;;;;;5073877;28;20768;-65
2022/08/25 10:21:36;;;;;;;;;;;31.40;93.60;;;;;;5073909;28;20791;-66
2022/08/25 10:24:05;;;;;;;;;;;31.40;93.40;;;;;;5074041;28;20704;-65
2022/08/25 10:26:36;;;;;;;;;;;31.50;93.30;;;;;;5073952;28;20271;-66
2022/08/25 10:29:10;;;;;;;;;;;31.60;93.20;;;;;;5074066;28;20666;-66
2022/08/25 10:31:43;;;;;;;;;;;31.40;93.20;;;;;;5073905;28;20202;-66
2022/08/25 10:34:18;;;;;;;;;;;31.40;93.50;;;;;;5069453;28;20225;-66
2022/08/25 10:36:53;;;;;;;;;;;31.20;93.00;;;;;;5053846;28;20208;-66
2022/08/25 10:39:28;;;;;;;;;;;31.30;93.30;;;;;;5053823;28;20656;-66
2022/08/25 10:42:09;;;;;;;;;;;31.10;93.40;;;;;;5054028;28;20686;-66
2022/08/25 10:47:49;;;;;;;;;;;31.30;92.90;;;;;;5053859;28;20208;-66
2022/08/25 10:50:22;;;;;;;;;;;31.40;92.60;;;;;;5053623;28;20199;-66
2022/08/25 10:52:58;;;;;;;;;;;31.30;92.70;;;;;;5053594;28;20277;-65
2022/08/25 10:55:29;;;;;;;;;;;30.80;92.80;;;;;;5053389;28;20238;-66
2022/08/25 10:58:02;;;;;;;;;;;30.70;93.50;;;;;;5053598;28;20205;-66
2022/08/25 11:00:34;;;;;;;;;;;30.60;93.40;;;;;;5053271;28;20210;-66
2022/08/25 11:03:11;;;;;;;;;;;30.60;93.10;;;;;;5053447;28;20207;-66
2022/08/25 11:05:40;;;;;;;;;;;31.00;93.20;;;;;;5072609;28;20685;-66
2022/08/25 11:08:13;;;;;;;;;;;31.20;92.80;;;;;;5073686;28;20099;-66
2022/08/25 11:10:44;;;;;;;;;;;31.60;92.40;;;;;;5073257;28;20649;-66
2022/08/25 11:13:21;;;;;;;;;;;32.00;91.80;;;;;;5072458;28;20350;-66
2022/08/25 11:15:52;;;;;;;;;;;32.40;91.60;;;;;;5072827;28;20744;-66
2022/08/25 11:18:49;;;;;;;;;;;32.70;91.10;;;;;;5072159;28;20369;-65
2022/08/25 11:21:20;;;;;;;;;;;32.10;91.00;;;;;;5072477;28;25128;-66
2022/08/25 11:23:53;;;;;;;;;;;31.90;91.10;;;;;;5072795;28;20108;-66
2022/08/25 11:26:28;;;;;;;;;;;32.00;90.90;;;;;;5072631;28;25069;-66
2022/08/25 11:29:02;;;;;;;;;;;31.90;90.70;;;;;;5073027;28;20059;-66
2022/08/25 11:31:35;;;;;;;;;;;31.70;90.80;;;;;;5072642;28;20709;-66
2022/08/25 11:34:02;;;;;;;;;;;31.60;91.20;;;;;;5062795;28;20226;-66
2022/08/25 11:36:34;;;;;;;;;;;31.40;91.10;;;;;;5052618;28;20610;-66
2022/08/25 11:39:09;;;;;;;;;;;31.30;91.40;;;;;;5053021;28;20207;-66
2022/08/25 11:41:40;;;;;;;;;;;31.10;91.50;;;;;;5052525;28;20631;-65
2022/08/25 11:44:15;;;;;;;;;;;31.10;91.50;;;;;;5053508;28;20596;-66
2022/08/25 11:46:56;;;;;;;;;;;30.80;91.40;;;;;;5052255;28;20140;-66
2022/08/25 11:49:33;;;;;;;;;;;30.70;92.20;;;;;;5052544;28;20224;-65
2022/08/25 11:52:02;;;;;;;;;;;30.90;92.00;;;;;;5052337;28;20206;-66
2022/08/25 11:54:35;;;;;;;;;;;30.80;91.90;;;;;;5052413;28;20280;-65
2022/08/25 11:57:05;;;;;;;;;;;30.50;92.00;;;;;;5052423;28;20287;-65
2022/08/25 11:59:51;;;;;;;;;;;30.20;92.10;;;;;;5061923;28;20263;-65
2022/08/25 12:02:28;;;;;;;;;;;29.90;92.50;;;;;;5071961;28;20976;-65
2022/08/25 12:04:56;;;;;;;;;;;29.80;92.80;;;;;;5072315;28;20206;-66
2022/08/25 12:07:26;;;;;;;;;;;30.20;92.30;;;;;;5072147;28;20584;-66
2022/08/25 12:10:09;;;;;;;;;;;30.30;92.30;;;;;;5071850;28;20249;-65
2022/08/25 12:12:55;;;;;;;;;;;30.30;92.20;;;;;;5070570;28;20716;-66
2022/08/25 12:15:24;;;;;;;;;;;30.40;92.30;;;;;;5053442;28;20256;-66
2022/08/25 12:18:09;;;;;;;;;;;30.40;92.20;;;;;;5074789;22;21436;-66
2022/08/25 12:20:56;;;;;;;;;;;30.60;92.30;;;;;;5042456;28;20214;-66
2022/08/25 12:23:27;;;;;;;;;;;30.60;92.10;;;;;;5050769;28;20224;-65
2022/08/25 12:25:56;;;;;;;;;;;30.70;91.60;;;;;;5051908;28;20676;-65
2022/08/25 12:28:36;;;;;;;;;;;30.70;91.90;;;;;;5051605;28;20223;-67
2022/08/25 12:31:08;;;;;;;;;;;30.50;91.70;;;;;;5051416;28;20150;-66
2022/08/25 12:33:42;;;;;;;;;;;30.30;91.70;;;;;;5052129;28;20093;-65
2022/08/25 12:36:11;;;;;;;;;;;30.10;92.00;;;;;;5051953;28;20089;-65
2022/08/25 12:38:42;;;;;;;;;;;30.00;91.90;;;;;;5051757;28;20225;-65
2022/08/25 12:41:15;;;;;;;;;;;30.30;91.90;;;;;;5051550;28;20631;-65
2022/08/25 12:43:45;;;;;;;;;;;31.00;91.40;;;;;;5051278;28;25065;-66
2022/08/25 12:46:31;;;;;;;;;;;31.60;91.00;;;;;;5051449;28;20504;-66
2022/08/25 12:49:00;;;;;;;;;;;32.00;90.60;;;;;;5051812;28;20715;-66
2022/08/25 12:51:37;;;;;;;;;;;31.90;91.00;;;;;;5051558;28;20205;-66
2022/08/25 12:54:12;;;;;;;;;;;32.30;90.50;;;;;;5051572;28;20227;-66
2022/08/25 12:56:52;;;;;;;;;;;32.20;90.00;;;;;;5051705;28;20193;-65
2022/08/25 12:59:22;;;;;;;;;;;31.90;89.80;;;;;;5051434;28;20183;-65
2022/08/25 13:01:57;;;;;;;;;;;31.90;88.80;;;;;;5051215;28;20197;-66
2022/08/25 13:04:35;;;;;;;;;;;32.60;89.30;;;;;;5051611;28;20189;-66
2022/08/25 13:07:17;;;;;;;;;;;33.30;88.00;;;;;;5052229;28;20270;-66
2022/08/25 13:09:59;;;;;;;;;;;34.10;87.00;;;;;;5047811;28;20090;-66
2022/08/25 13:12:31;;;;;;;;;;;34.80;83.80;;;;;;5051440;28;20224;-66
2022/08/25 13:15:00;;;;;;;;;;;34.90;82.70;;;;;;5051950;28;20200;-66
2022/08/25 13:17:29;;;;;;;;;;;34.70;82.60;;;;;;5051165;28;21133;-66
2022/08/25 13:20:18;;;;;;;;;;;34.00;82.60;;;;;;5051119;28;20883;-66
2022/08/25 13:22:47;;;;;;;;;;;33.70;82.70;;;;;;5051338;28;20927;-66
2022/08/25 13:25:16;;;;;;;;;;;33.50;83.80;;;;;;5051242;28;20976;-65
2022/08/25 13:27:51;;;;;;;;;;;33.10;83.90;;;;;;5050899;28;20341;-66
2022/08/25 13:30:31;;;;;;;;;;;32.70;84.50;;;;;;5050915;28;25342;-66
2022/08/25 13:32:59;;;;;;;;;;;33.30;83.80;;;;;;5051281;28;20579;-66
2022/08/25 13:35:35;;;;;;;;;;;33.50;83.90;;;;;;5051102;28;20311;-66
2022/08/25 13:38:12;;;;;;;;;;;33.20;84.10;;;;;;5055090;28;20415;-65
2022/08/25 13:40:40;;;;;;;;;;;33.20;84.50;;;;;;5054628;28;25088;-66
2022/08/25 13:43:11;;;;;;;;;;;33.10;83.20;;;;;;5054839;28;20227;-66
2022/08/25 13:45:42;;;;;;;;;;;33.20;83.00;;;;;;5054443;28;20187;-66
2022/08/25 13:48:11;;;;;;;;;;;32.90;83.50;;;;;;5054405;28;25115;-66
2022/08/25 13:50:51;;;;;;;;;;;32.50;83.90;;;;;;5054836;28;20061;-65
2022/08/25 13:53:22;;;;;;;;;;;32.90;84.00;;;;;;5054730;28;20202;-66
2022/08/25 13:55:52;;;;;;;;;;;32.90;83.90;;;;;;5054576;28;20646;-66
2022/08/25 13:58:21;;;;;;;;;;;32.70;83.10;;;;;;5054512;28;20200;-66
2022/08/25 14:01:02;;;;;;;;;;;33.00;83.30;;;;;;5054483;28;20261;-66
2022/08/25 14:03:50;;;;;;;;;;;33.60;81.50;;;;;;5054163;28;20181;-66
2022/08/25 14:06:20;;;;;;;;;;;34.00;81.20;;;;;;5054218;28;20245;-66
2022/08/25 14:09:04;;;;;;;;;;;34.20;80.30;;;;;;5054591;28;25159;-66
2022/08/25 14:11:34;;;;;;;;;;;34.20;80.00;;;;;;5054296;28;20132;-66
2022/08/25 14:14:03;;;;;;;;;;;34.40;79.40;;;;;;5054315;28;20200;-66
2022/08/25 14:16:35;;;;;;;;;;;34.60;80.00;;;;;;5053698;28;20202;-66
2022/08/25 14:19:03;;;;;;;;;;;34.30;78.30;;;;;;5053828;28;25162;-66
2022/08/25 14:21:33;;;;;;;;;;;34.60;78.90;;;;;;5053825;28;20553;-66
2022/08/25 14:24:01;;;;;;;;;;;35.00;77.90;;;;;;5054195;28;20265;-66
2022/08/25 14:26:29;;;;;;;;;;;35.20;77.60;;;;;;5053886;28;20176;-66
2022/08/25 14:28:57;;;;;;;;;;;35.30;77.00;;;;;;5054057;28;20180;-66
2022/08/25 14:31:26;;;;;;;;;;;35.90;76.50;;;;;;5053743;28;20183;-66
2022/08/25 14:33:58;;;;;;;;;;;36.20;74.90;;;;;;5053754;28;20191;-66
2022/08/25 14:36:28;;;;;;;;;;;36.80;74.60;;;;;;5053986;28;20203;-66
2022/08/25 14:38:57;;;;;;;;;;;37.30;74.20;;;;;;5053899;28;20534;-66
2022/08/25 14:41:25;;;;;;;;;;;37.10;73.80;;;;;;5053645;28;20309;-66
2022/08/25 14:43:53;;;;;;;;;;;36.60;73.40;;;;;;5053815;28;20230;-66
2022/08/25 14:46:22;;;;;;;;;;;36.60;73.30;;;;;;5053957;28;20153;-66
2022/08/25 14:48:53;;;;;;;;;;;36.50;73.40;;;;;;5052394;28;20706;-66
2022/08/25 14:51:24;;;;;;;;;;;36.30;73.90;;;;;;5053071;28;20190;-66